Alpine Village, Colorado
Current Conditions -  °F | °C
As of 9:14 PM on Tuesday 21 Oct 2014 (Local Time) from K7BM Reporting Station
Broken Clouds Broken Clouds  
Wind Chill:   Ceiling: 8000
Heat Index:   Visibility: 10mi
Dew Point:   Wind: 0mph
Humidity: 62%   Direction: NA
Pressure: 30.23"   Gusts: NA
Location:  38.7194°N, 106.276°W
Report Text: K7BM 220314Z AUTO 00000KT 10SM SCT050 BKN080 08/01 A3023 RMK AO2 LTG DSNT W THRU N
Loading
Personal Weather Stations






























Interactive Weather Map New forecast layout! Learn more

10-Day Weather Forecast

Advertisements
Track Severe Weather on mobile